createdAt,value
2023-03-18T00:01:03.968Z,5.07
2023-03-18T00:03:32.455Z,5.95
2023-03-18T00:06:07.172Z,4.85
2023-03-18T00:08:35.400Z,5.03
2023-03-18T00:11:05.525Z,6.22
2023-03-18T00:13:34.572Z,4.82
2023-03-18T00:16:02.688Z,6.45
2023-03-18T00:18:31.478Z,5.75
2023-03-18T00:21:00.883Z,6.47
2023-03-18T00:23:30.307Z,6.15
2023-03-18T00:26:00.609Z,6.32
2023-03-18T00:28:29.410Z,7.45
2023-03-18T00:31:02.662Z,5.93
2023-03-18T00:33:31.575Z,6.20
2023-03-18T00:35:59.615Z,6.80
2023-03-18T00:38:30.309Z,6.03
2023-03-18T00:41:11.032Z,6.90
2023-03-18T00:43:46.026Z,5.43
2023-03-18T00:46:16.219Z,6.53
2023-03-18T00:48:44.492Z,7.30
2023-03-18T00:51:14.148Z,6.72
2023-03-18T00:53:44.940Z,5.95
2023-03-18T00:56:13.874Z,7.72
2023-03-18T00:58:41.932Z,7.93
2023-03-18T01:01:12.401Z,6.32
2023-03-18T01:03:42.147Z,7.68
2023-03-18T01:06:11.381Z,6.90
2023-03-18T01:08:41.178Z,5.68
2023-03-18T01:11:11.356Z,5.63
2023-03-18T01:13:40.367Z,6.38
2023-03-18T01:16:10.400Z,5.93
2023-03-18T01:18:39.977Z,5.70
2023-03-18T01:21:08.649Z,5.25
2023-03-18T01:23:36.770Z,4.38
2023-03-18T01:26:05.404Z,5.53
2023-03-18T01:28:34.767Z,6.65
2023-03-18T01:31:02.540Z,5.47
2023-03-18T01:33:30.735Z,6.97
2023-03-18T01:36:02.242Z,6.55
2023-03-18T01:38:30.693Z,7.07
2023-03-18T01:40:59.091Z,4.43
2023-03-18T01:43:29.283Z,5.18
2023-03-18T01:46:00.762Z,3.78
2023-03-18T01:48:30.811Z,5.63
2023-03-18T01:51:01.063Z,5.60
2023-03-18T01:53:32.572Z,5.13
2023-03-18T01:56:01.353Z,6.28
2023-03-18T01:58:34.138Z,4.80
2023-03-18T02:01:07.495Z,5.32
2023-03-18T02:03:36.675Z,4.28
2023-03-18T02:06:04.773Z,4.25
2023-03-18T02:08:32.568Z,5.15
2023-03-18T02:11:00.978Z,4.88
2023-03-18T02:13:28.792Z,4.03
2023-03-18T02:16:03.236Z,3.75
2023-03-18T02:18:36.411Z,6.30
2023-03-18T02:21:20.663Z,5.35
2023-03-18T02:23:59.269Z,4.75
2023-03-18T02:26:34.868Z,5.40
2023-03-18T02:29:07.036Z,4.60
2023-03-18T02:31:36.835Z,4.50
2023-03-18T02:34:08.542Z,5.65
2023-03-18T02:36:37.158Z,4.00
2023-03-18T02:39:05.538Z,4.38
2023-03-18T02:41:36.022Z,3.97
2023-03-18T02:44:05.527Z,4.38
2023-03-18T02:46:39.969Z,3.28
2023-03-18T02:49:08.997Z,4.45
2023-03-18T02:51:38.232Z,3.72
2023-03-18T02:54:10.091Z,4.13
2023-03-18T02:56:38.004Z,3.95
2023-03-18T02:59:08.312Z,4.30
2023-03-18T03:01:37.610Z,3.50
2023-03-18T03:04:06.820Z,4.43
2023-03-18T03:06:35.890Z,4.25
2023-03-18T03:09:04.239Z,4.35
2023-03-18T03:11:32.249Z,3.53
2023-03-18T03:14:00.050Z,3.80
2023-03-18T03:16:29.586Z,4.40
2023-03-18T03:18:57.403Z,7.15
2023-03-18T03:21:25.207Z,4.50
2023-03-18T03:23:54.390Z,3.92
2023-03-18T03:26:22.616Z,4.82
2023-03-18T03:28:50.883Z,4.15
2023-03-18T03:31:18.885Z,3.80
2023-03-18T03:33:48.045Z,5.88
2023-03-18T03:36:17.790Z,3.05
2023-03-18T03:38:46.447Z,2.97
2023-03-18T03:41:15.733Z,3.30
2023-03-18T03:43:44.605Z,5.18
2023-03-18T03:46:12.860Z,4.18
2023-03-18T03:48:40.794Z,4.22
2023-03-18T03:51:10.556Z,3.40
2023-03-18T03:53:38.439Z,3.25
2023-03-18T03:56:09.028Z,4.05
2023-03-18T03:58:37.325Z,3.22
2023-03-18T04:01:06.400Z,2.88
2023-03-18T04:03:34.707Z,2.88
2023-03-18T04:06:02.665Z,4.43
2023-03-18T04:08:31.836Z,3.40
2023-03-18T04:10:59.694Z,4.38
2023-03-18T04:13:27.476Z,4.18
2023-03-18T04:15:55.783Z,3.88
2023-03-18T04:18:23.579Z,4.25
2023-03-18T04:20:51.349Z,3.65
2023-03-18T04:23:19.306Z,3.60
2023-03-18T04:25:48.421Z,3.30
2023-03-18T04:28:16.368Z,3.05
2023-03-18T04:30:44.190Z,3.50
2023-03-18T04:33:12.804Z,3.20
2023-03-18T04:35:42.634Z,3.38
2023-03-18T04:38:10.840Z,4.20
2023-03-18T04:40:38.859Z,3.47
2023-03-18T04:43:09.844Z,4.45
2023-03-18T04:45:37.915Z,3.42
2023-03-18T04:48:06.077Z,3.47
2023-03-18T04:50:34.339Z,4.03
2023-03-18T04:53:02.178Z,4.47
2023-03-18T04:55:30.674Z,3.78
2023-03-18T04:57:58.701Z,4.85
2023-03-18T05:00:27.948Z,4.15
2023-03-18T05:02:55.792Z,3.15
2023-03-18T05:05:23.582Z,3.42
2023-03-18T05:07:51.624Z,3.38
2023-03-18T05:10:20.024Z,2.97
2023-03-18T05:12:48.481Z,3.38
2023-03-18T05:15:16.455Z,4.35
2023-03-18T05:17:45.760Z,4.45
2023-03-18T05:20:14.617Z,4.47
2023-03-18T05:22:42.488Z,3.78
2023-03-18T05:25:12.594Z,5.45
2023-03-18T05:27:40.465Z,3.80
2023-03-18T05:30:11.081Z,3.97
2023-03-18T05:32:39.078Z,3.65
2023-03-18T05:35:10.375Z,4.15
2023-03-18T05:37:38.246Z,4.22
2023-03-18T05:40:09.806Z,3.83
2023-03-18T05:42:49.451Z,4.28
2023-03-18T05:45:23.082Z,3.28
2023-03-18T05:47:51.681Z,3.70
2023-03-18T05:50:29.947Z,5.38
2023-03-18T05:52:57.927Z,4.70
2023-03-18T05:55:25.748Z,2.83
2023-03-18T05:57:54.186Z,3.08
2023-03-18T06:00:22.628Z,3.33
2023-03-18T06:02:52.309Z,3.50
2023-03-18T06:05:22.345Z,2.83
2023-03-18T06:07:50.137Z,4.70
2023-03-18T06:10:18.264Z,3.55
2023-03-18T06:12:46.280Z,5.05
2023-03-18T06:15:14.735Z,3.88
2023-03-18T06:17:42.811Z,3.53
2023-03-18T06:20:12.601Z,3.10
2023-03-18T06:22:43.589Z,3.67
2023-03-18T06:25:11.904Z,3.45
2023-03-18T06:27:39.973Z,3.65
2023-03-18T06:30:08.796Z,3.40
2023-03-18T06:32:36.812Z,5.28
2023-03-18T06:35:05.268Z,5.47
2023-03-18T06:37:33.870Z,4.68
2023-03-18T06:40:03.517Z,4.88
2023-03-18T06:42:31.471Z,3.78
2023-03-18T06:44:59.881Z,3.17
2023-03-18T06:47:28.442Z,4.18
2023-03-18T06:49:57.005Z,3.25
2023-03-18T06:52:24.809Z,3.10
2023-03-18T06:54:53.430Z,4.15
2023-03-18T06:57:22.580Z,3.95
2023-03-18T06:59:50.639Z,2.85
2023-03-18T07:02:18.482Z,2.90
2023-03-18T07:04:46.543Z,3.28
2023-03-18T07:07:14.762Z,3.17
2023-03-18T07:09:43.559Z,3.30
2023-03-18T07:12:12.032Z,3.92
2023-03-18T07:14:41.535Z,3.10
2023-03-18T07:17:10.320Z,3.10
2023-03-18T07:19:38.264Z,2.88
2023-03-18T07:22:06.064Z,3.13
2023-03-18T07:24:34.672Z,4.15
2023-03-18T07:27:02.760Z,3.40
2023-03-18T07:29:30.656Z,2.97
2023-03-18T07:31:59.861Z,4.43
2023-03-18T07:34:27.729Z,3.58
2023-03-18T07:36:55.694Z,3.10
2023-03-18T07:39:23.563Z,3.50
2023-03-18T07:41:51.596Z,3.65
2023-03-18T07:44:19.424Z,3.28
2023-03-18T07:46:47.289Z,3.05
2023-03-18T07:49:16.496Z,4.00
2023-03-18T07:51:44.384Z,3.38
2023-03-18T07:54:12.184Z,3.40
2023-03-18T07:56:40.022Z,3.90
2023-03-18T07:59:07.839Z,4.68
2023-03-18T08:01:35.631Z,3.65
2023-03-18T08:04:04.297Z,3.28
2023-03-18T08:06:34.330Z,3.55
2023-03-18T08:09:03.592Z,3.60
2023-03-18T08:11:33.041Z,3.70
2023-03-18T08:14:01.444Z,4.80
2023-03-18T08:16:29.279Z,4.38
2023-03-18T08:18:57.179Z,4.53
2023-03-18T08:21:25.454Z,4.00
2023-03-18T08:23:54.648Z,4.70
2023-03-18T08:26:22.453Z,3.85
2023-03-18T08:28:50.293Z,4.15
2023-03-18T08:31:18.722Z,3.85
2023-03-18T08:33:47.553Z,3.83
2023-03-18T08:36:15.388Z,4.70
2023-03-18T08:38:43.221Z,6.25
2023-03-18T08:41:12.423Z,4.30
2023-03-18T08:43:40.817Z,4.00
2023-03-18T08:46:08.829Z,4.47
2023-03-18T08:48:36.844Z,3.53
2023-03-18T08:51:08.096Z,3.58
2023-03-18T08:53:36.569Z,4.07
2023-03-18T08:56:05.738Z,4.85
2023-03-18T08:58:36.653Z,3.25
2023-03-18T09:01:05.218Z,3.35
2023-03-18T09:03:36.743Z,4.85
2023-03-18T09:06:04.819Z,4.35
2023-03-18T09:08:33.476Z,3.53
2023-03-18T09:11:01.325Z,4.43
2023-03-18T09:13:29.230Z,3.28
2023-03-18T09:15:58.436Z,2.85
2023-03-18T09:18:26.433Z,3.83
2023-03-18T09:20:54.277Z,3.35
2023-03-18T09:23:22.946Z,3.00
2023-03-18T09:25:51.473Z,3.13
2023-03-18T09:28:19.623Z,6.53
2023-03-18T09:30:48.276Z,3.30
2023-03-18T09:33:17.443Z,5.03
2023-03-18T09:35:45.730Z,3.33
2023-03-18T09:38:16.538Z,3.53
2023-03-18T09:40:56.192Z,3.72
2023-03-18T09:43:42.147Z,4.82
2023-03-18T09:46:18.456Z,4.43
2023-03-18T09:49:18.734Z,4.53
2023-03-18T09:51:58.092Z,4.32
2023-03-18T09:54:33.822Z,4.40
2023-03-18T09:57:07.207Z,5.13
2023-03-18T09:59:39.802Z,10.13
2023-03-18T10:02:20.213Z,14.02
2023-03-18T10:04:56.105Z,13.13
2023-03-18T10:07:28.712Z,13.02
2023-03-18T10:10:00.391Z,14.45
2023-03-18T10:12:32.503Z,17.48
2023-03-18T10:15:12.236Z,20.98
2023-03-18T10:17:42.393Z,18.23
2023-03-18T10:20:18.975Z,14.27
2023-03-18T10:23:03.517Z,16.10
2023-03-18T10:25:38.663Z,18.00
2023-03-18T10:28:20.384Z,18.17
2023-03-18T10:31:00.158Z,16.85
2023-03-18T10:33:37.054Z,17.42
2023-03-18T10:36:13.326Z,15.80
2023-03-18T10:38:45.736Z,16.17
2023-03-18T10:41:22.660Z,15.43
2023-03-18T10:43:54.142Z,14.98
2023-03-18T10:46:23.086Z,17.45
2023-03-18T10:48:55.664Z,14.32
2023-03-18T10:51:31.785Z,15.02
2023-03-18T10:54:07.357Z,13.05
2023-03-18T10:56:36.489Z,13.48
2023-03-18T10:59:11.589Z,9.38
2023-03-18T11:01:40.610Z,10.07
2023-03-18T11:04:14.239Z,11.73
2023-03-18T11:06:47.339Z,12.07
2023-03-18T11:09:18.655Z,10.48
2023-03-18T11:11:48.510Z,8.88
2023-03-18T11:14:20.882Z,8.65
2023-03-18T11:16:50.956Z,7.47
2023-03-18T11:19:28.999Z,8.23
2023-03-18T11:22:26.483Z,7.93
2023-03-18T11:25:12.997Z,11.18
2023-03-18T11:27:42.561Z,7.72
2023-03-18T11:30:32.714Z,7.57
2023-03-18T11:33:06.939Z,7.10
2023-03-18T11:35:40.200Z,7.30
2023-03-18T11:38:16.481Z,6.13
2023-03-18T11:40:44.713Z,6.75
2023-03-18T11:43:19.435Z,5.22
2023-03-18T11:45:57.253Z,5.50
2023-03-18T11:48:36.410Z,4.82
2023-03-18T11:51:46.026Z,7.53
2023-03-18T11:54:29.609Z,5.25
2023-03-18T11:57:01.402Z,5.05
2023-03-18T11:59:41.557Z,6.05
2023-03-18T12:02:45.152Z,4.38
2023-03-18T12:05:35.879Z,4.57
2023-03-18T12:08:14.714Z,5.57
2023-03-18T12:10:48.507Z,6.55
2023-03-18T12:13:37.319Z,4.20
2023-03-18T12:16:11.865Z,7.13
2023-03-18T12:18:56.271Z,5.07
2023-03-18T12:21:38.689Z,6.40
2023-03-18T12:24:30.279Z,5.55
2023-03-18T12:27:04.709Z,5.75
2023-03-18T12:29:58.184Z,6.13
2023-03-18T12:32:28.921Z,4.05
2023-03-18T12:35:20.882Z,5.78
2023-03-18T12:38:08.482Z,5.97
2023-03-18T12:40:53.019Z,3.70
2023-03-18T12:43:52.769Z,5.22
2023-03-18T12:46:28.908Z,3.97
2023-03-18T12:49:08.765Z,5.32
2023-03-18T12:51:52.476Z,5.22
2023-03-18T12:54:25.763Z,5.20
2023-03-18T12:57:00.997Z,7.53
2023-03-18T12:59:35.097Z,4.93
2023-03-18T13:02:37.833Z,6.50
2023-03-18T13:05:14.674Z,4.53
2023-03-18T13:07:48.635Z,4.75
2023-03-18T13:10:21.611Z,3.65
2023-03-18T13:12:52.872Z,5.35
2023-03-18T13:15:31.989Z,2.50
2023-03-18T13:18:05.705Z,5.05
2023-03-18T13:21:10.311Z,5.43
2023-03-18T13:24:17.525Z,2.92
2023-03-18T13:27:14.655Z,6.07
2023-03-18T13:29:54.814Z,4.00
2023-03-18T13:32:58.076Z,3.85
2023-03-18T13:35:46.154Z,5.68
2023-03-18T13:38:29.630Z,5.50
2023-03-18T13:41:25.540Z,3.53
2023-03-18T13:43:58.027Z,3.35
2023-03-18T13:46:28.906Z,2.67
2023-03-18T13:49:02.393Z,3.28
2023-03-18T13:51:52.381Z,4.32
2023-03-18T13:54:21.516Z,3.95
2023-03-18T13:56:55.468Z,2.85
2023-03-18T13:59:46.744Z,2.38
2023-03-18T14:02:43.666Z,3.13
2023-03-18T14:05:40.224Z,4.43
2023-03-18T14:08:42.370Z,4.18
2023-03-18T14:11:51.870Z,3.17
2023-03-18T14:15:01.753Z,3.40
2023-03-18T14:18:00.876Z,4.15
2023-03-18T14:20:47.942Z,4.47
2023-03-18T14:23:35.760Z,2.83
2023-03-18T14:26:20.357Z,2.70
2023-03-18T14:28:54.228Z,2.30
2023-03-18T14:31:34.320Z,1.75
2023-03-18T14:34:34.280Z,3.28
2023-03-18T14:37:54.649Z,2.40
2023-03-18T14:40:23.038Z,2.63
2023-03-18T14:42:58.331Z,3.03
2023-03-18T14:45:29.621Z,3.17
2023-03-18T14:48:03.334Z,2.47
2023-03-18T14:50:40.461Z,3.47
2023-03-18T14:53:20.273Z,2.58
2023-03-18T14:55:49.703Z,4.93
2023-03-18T14:58:18.965Z,4.57
2023-03-18T15:00:49.710Z,3.72
2023-03-18T15:03:25.012Z,4.60
2023-03-18T15:05:58.000Z,3.85
2023-03-18T15:08:44.633Z,2.28
2023-03-18T15:11:18.114Z,1.98
2023-03-18T15:13:46.970Z,2.28
2023-03-18T15:16:19.391Z,2.58
2023-03-18T15:18:52.689Z,2.00
2023-03-18T15:21:27.633Z,2.45
2023-03-18T15:24:04.674Z,2.35
2023-03-18T15:26:35.970Z,4.15
2023-03-18T15:29:26.393Z,5.20
2023-03-18T15:31:54.759Z,1.92
2023-03-18T15:34:28.422Z,3.80
2023-03-18T15:36:59.274Z,3.58
2023-03-18T15:39:35.862Z,2.88
2023-03-18T15:42:06.696Z,2.35
2023-03-18T15:44:38.979Z,3.40
2023-03-18T15:47:13.607Z,3.10
2023-03-18T15:49:51.504Z,2.70
2023-03-18T15:52:27.059Z,2.63
2023-03-18T15:54:56.359Z,2.33
2023-03-18T15:57:30.446Z,3.50
2023-03-18T15:59:58.557Z,2.53
2023-03-18T16:02:32.029Z,2.80
2023-03-18T16:05:07.745Z,1.80
2023-03-18T16:07:35.626Z,2.08
2023-03-18T16:10:05.273Z,4.28
2023-03-18T16:12:34.587Z,4.85
2023-03-18T16:15:04.888Z,3.40
2023-03-18T16:17:33.191Z,3.85
2023-03-18T16:20:03.949Z,4.72
2023-03-18T16:22:33.649Z,1.77
2023-03-18T16:25:01.770Z,2.97
2023-03-18T16:27:37.442Z,2.72
2023-03-18T16:30:06.226Z,2.85
2023-03-18T16:32:37.432Z,3.03
2023-03-18T16:35:05.613Z,3.00
2023-03-18T16:37:33.890Z,3.95
2023-03-18T16:40:02.133Z,2.30
2023-03-18T16:42:34.331Z,1.92
2023-03-18T16:45:02.620Z,4.82
2023-03-18T16:47:30.565Z,8.07
2023-03-18T16:49:59.154Z,13.80
2023-03-18T16:52:27.409Z,12.10
2023-03-18T16:54:55.350Z,9.90
2023-03-18T16:57:24.109Z,4.30
2023-03-18T16:59:56.440Z,7.63
2023-03-18T17:02:36.587Z,4.18
2023-03-18T17:05:05.506Z,8.43
2023-03-18T17:07:36.761Z,13.65
2023-03-18T17:10:04.978Z,9.43
2023-03-18T17:12:32.960Z,5.50
2023-03-18T17:15:03.394Z,8.07
2023-03-18T17:17:35.588Z,13.82
2023-03-18T17:20:04.233Z,3.55
2023-03-18T17:22:33.848Z,5.10
2023-03-18T17:25:02.166Z,3.78
2023-03-18T17:27:33.899Z,3.00
2023-03-18T17:30:03.550Z,3.78
2023-03-18T17:32:31.564Z,4.78
2023-03-18T17:34:59.484Z,4.97
2023-03-18T17:37:27.383Z,3.65
2023-03-18T17:39:55.372Z,4.93
2023-03-18T17:42:29.414Z,3.78
2023-03-18T17:45:07.095Z,4.55
2023-03-18T17:47:36.731Z,4.75
2023-03-18T17:50:05.934Z,3.03
2023-03-18T17:52:34.069Z,3.35
2023-03-18T17:55:02.024Z,6.57
2023-03-18T17:57:31.172Z,5.53
2023-03-18T17:59:59.097Z,6.07
2023-03-18T18:02:27.076Z,3.88
2023-03-18T18:04:56.594Z,5.28
2023-03-18T18:07:27.725Z,4.20
2023-03-18T18:10:00.609Z,5.65
2023-03-18T18:12:28.843Z,6.50
2023-03-18T18:14:58.419Z,4.57
2023-03-18T18:17:26.566Z,5.50
2023-03-18T18:19:56.174Z,4.55
2023-03-18T18:22:26.427Z,3.85
2023-03-18T18:24:57.156Z,4.32
2023-03-18T18:27:25.244Z,6.85
2023-03-18T18:29:54.425Z,5.53
2023-03-18T18:32:24.768Z,6.57
2023-03-18T18:34:53.203Z,4.78
2023-03-18T18:37:22.525Z,4.78
2023-03-18T18:39:50.484Z,4.72
2023-03-18T18:42:18.400Z,5.93
2023-03-18T18:44:46.378Z,4.47
2023-03-18T18:47:19.360Z,5.93
2023-03-18T18:49:47.890Z,4.50
2023-03-18T18:52:16.163Z,3.80
2023-03-18T18:54:46.076Z,5.15
2023-03-18T18:57:26.661Z,6.57
2023-03-18T18:59:54.862Z,4.93
2023-03-18T19:02:31.166Z,5.47
2023-03-18T19:04:59.993Z,5.47
2023-03-18T19:07:29.222Z,5.32
2023-03-18T19:10:01.660Z,5.45
2023-03-18T19:12:30.023Z,5.70
2023-03-18T19:14:58.034Z,7.28
2023-03-18T19:17:26.024Z,5.55
2023-03-18T19:19:54.700Z,5.50
2023-03-18T19:22:22.590Z,7.55
2023-03-18T19:24:51.533Z,4.88
2023-03-18T19:27:25.487Z,5.72
2023-03-18T19:29:54.501Z,6.30
2023-03-18T19:32:23.906Z,7.53
2023-03-18T19:34:53.513Z,6.40
2023-03-18T19:37:25.920Z,5.85
2023-03-18T19:39:54.993Z,6.32
2023-03-18T19:42:24.280Z,6.65
2023-03-18T19:44:52.703Z,5.22
2023-03-18T19:47:24.343Z,7.93
2023-03-18T19:49:53.225Z,6.35
2023-03-18T19:52:23.615Z,5.88
2023-03-18T19:54:52.643Z,5.68
2023-03-18T19:57:24.760Z,6.60
2023-03-18T19:59:55.750Z,5.57
2023-03-18T20:02:25.684Z,7.45
2023-03-18T20:04:55.457Z,8.57
2023-03-18T20:07:25.621Z,4.97
2023-03-18T20:09:54.897Z,5.45
2023-03-18T20:12:25.636Z,5.10
2023-03-18T20:14:55.211Z,5.65
2023-03-18T20:17:32.592Z,6.45
2023-03-18T20:20:01.111Z,5.97
2023-03-18T20:22:33.161Z,6.20
2023-03-18T20:25:01.963Z,5.00
2023-03-18T20:27:30.590Z,5.43
2023-03-18T20:30:00.740Z,4.82
2023-03-18T20:32:28.964Z,5.32
2023-03-18T20:34:57.124Z,5.57
2023-03-18T20:37:31.875Z,4.72
2023-03-18T20:39:59.979Z,7.03
2023-03-18T20:42:28.277Z,5.45
2023-03-18T20:44:56.167Z,4.65
2023-03-18T20:47:25.496Z,4.55
2023-03-18T20:49:54.642Z,4.00
2023-03-18T20:52:26.622Z,4.95
2023-03-18T20:54:56.449Z,4.50
2023-03-18T20:57:24.565Z,4.85
2023-03-18T20:59:52.647Z,4.57
2023-03-18T21:02:31.937Z,5.65
2023-03-18T21:05:01.951Z,5.47
2023-03-18T21:07:30.756Z,4.18
2023-03-18T21:09:58.938Z,4.72
2023-03-18T21:12:26.946Z,4.13
2023-03-18T21:14:54.907Z,4.68
2023-03-18T21:17:24.756Z,4.25
2023-03-18T21:20:00.697Z,5.15
2023-03-18T21:22:34.473Z,4.85
2023-03-18T21:25:02.896Z,4.00
2023-03-18T21:27:31.034Z,5.05
2023-03-18T21:29:58.983Z,4.82
2023-03-18T21:32:29.664Z,5.13
2023-03-18T21:34:59.277Z,4.45
2023-03-18T21:37:28.185Z,4.22
2023-03-18T21:39:56.250Z,5.22
2023-03-18T21:42:26.113Z,4.18
2023-03-18T21:44:54.598Z,6.53
2023-03-18T21:47:24.284Z,4.82
2023-03-18T21:49:52.527Z,6.03
2023-03-18T21:52:28.276Z,4.65
2023-03-18T21:54:56.438Z,4.47
2023-03-18T21:57:25.340Z,3.90
2023-03-18T21:59:54.302Z,4.32
2023-03-18T22:02:27.565Z,4.97
2023-03-18T22:04:57.688Z,3.78
2023-03-18T22:07:28.047Z,4.03
2023-03-18T22:09:56.999Z,3.67
2023-03-18T22:12:26.713Z,3.72
2023-03-18T22:14:55.574Z,4.93
2023-03-18T22:17:28.588Z,3.55
2023-03-18T22:20:00.521Z,3.90
2023-03-18T22:22:32.065Z,3.88
2023-03-18T22:25:09.592Z,3.97
2023-03-18T22:27:37.911Z,3.65
2023-03-18T22:30:08.561Z,3.72
2023-03-18T22:32:40.208Z,4.13
2023-03-18T22:35:15.358Z,3.28
2023-03-18T22:37:45.048Z,3.85
2023-03-18T22:40:18.044Z,3.42
2023-03-18T22:42:47.496Z,3.42
2023-03-18T22:45:26.612Z,4.32
2023-03-18T22:47:56.672Z,3.80
2023-03-18T22:50:25.930Z,4.85
2023-03-18T22:53:01.090Z,5.95
2023-03-18T22:55:33.852Z,4.15
2023-03-18T22:58:02.168Z,4.32
2023-03-18T23:00:39.146Z,5.07
2023-03-18T23:03:12.714Z,3.80
2023-03-18T23:05:40.803Z,4.43
2023-03-18T23:08:10.072Z,4.70
2023-03-18T23:10:45.212Z,4.22
2023-03-18T23:13:16.294Z,4.05
2023-03-18T23:15:44.587Z,5.25
2023-03-18T23:18:15.388Z,3.92
2023-03-18T23:20:44.340Z,3.67
2023-03-18T23:23:14.918Z,3.97
2023-03-18T23:25:44.109Z,5.38
2023-03-18T23:28:12.180Z,5.00
2023-03-18T23:30:41.992Z,4.82
2023-03-18T23:33:11.434Z,5.47
2023-03-18T23:35:39.650Z,5.22
2023-03-18T23:38:08.035Z,4.72
2023-03-18T23:40:38.032Z,4.50
2023-03-18T23:43:06.525Z,4.80
2023-03-18T23:45:34.825Z,3.90
2023-03-18T23:48:03.575Z,4.03
2023-03-18T23:50:31.422Z,4.50
2023-03-18T23:53:00.094Z,5.22
2023-03-18T23:55:35.439Z,4.80
2023-03-18T23:58:05.220Z,5.28
